createdAt,value
2022-08-22T04:02:44.509Z,3.00
2022-08-22T04:05:59.521Z,4.30
2022-08-22T04:09:29.191Z,3.22
2022-08-22T04:13:09.031Z,2.97
2022-08-22T04:16:54.235Z,2.70
2022-08-22T04:20:41.482Z,2.53
2022-08-22T04:23:49.815Z,2.58
2022-08-22T04:27:02.229Z,2.87
2022-08-22T04:30:49.870Z,3.08
2022-08-22T04:34:22.484Z,2.80
2022-08-22T04:37:27.879Z,2.80
2022-08-22T04:40:38.919Z,2.12
2022-08-22T04:43:49.302Z,3.45
2022-08-22T04:47:00.794Z,2.90
2022-08-22T04:50:21.487Z,2.53
2022-08-22T04:54:06.051Z,2.80
2022-08-22T04:57:27.146Z,2.65
2022-08-22T05:00:49.057Z,2.72
2022-08-22T05:03:57.875Z,3.00
2022-08-22T05:07:15.940Z,3.28
2022-08-22T05:10:24.267Z,3.65
2022-08-22T05:14:05.261Z,4.00
2022-08-22T05:17:10.582Z,3.70
2022-08-22T05:20:17.515Z,3.92
2022-08-22T05:23:27.391Z,3.00
2022-08-22T05:26:37.731Z,3.45
2022-08-22T05:29:44.164Z,3.78
2022-08-22T05:32:55.518Z,4.53
2022-08-22T05:36:00.929Z,4.85
2022-08-22T05:39:12.006Z,4.15
2022-08-22T05:42:31.484Z,3.40
2022-08-22T05:45:36.277Z,4.20
2022-08-22T05:48:43.726Z,3.60
2022-08-22T05:52:10.898Z,4.30
2022-08-22T05:55:31.209Z,4.10
2022-08-22T05:58:48.291Z,4.30
2022-08-22T06:02:08.799Z,4.18
2022-08-22T06:05:12.412Z,5.07
2022-08-22T06:08:23.853Z,4.18
2022-08-22T06:11:52.140Z,4.30
2022-08-22T06:15:11.565Z,5.62
2022-08-22T06:18:21.007Z,4.97
2022-08-22T06:21:35.439Z,5.00
2022-08-22T06:24:43.235Z,4.82
2022-08-22T06:27:50.906Z,4.97
2022-08-22T06:30:56.414Z,4.40
2022-08-22T06:34:12.199Z,3.90
2022-08-22T06:37:31.563Z,4.07
2022-08-22T06:40:34.815Z,4.80
2022-08-22T06:43:43.050Z,4.55
2022-08-22T06:46:48.070Z,5.00
2022-08-22T06:49:59.091Z,5.65
2022-08-22T06:53:11.443Z,4.15
2022-08-22T06:56:21.734Z,5.57
2022-08-22T06:59:27.592Z,5.10
2022-08-22T07:02:36.700Z,3.97
2022-08-22T07:05:41.704Z,5.20
2022-08-22T07:08:45.218Z,5.22
2022-08-22T07:11:48.957Z,6.57
2022-08-22T07:14:54.354Z,5.97
2022-08-22T07:18:00.332Z,6.00
2022-08-22T07:21:04.762Z,6.18
2022-08-22T07:24:08.035Z,6.50
2022-08-22T07:27:27.543Z,6.40
2022-08-22T07:30:54.165Z,4.50
2022-08-22T07:34:13.290Z,6.30
2022-08-22T07:37:55.450Z,7.25
2022-08-22T07:41:22.885Z,6.18
2022-08-22T07:44:32.690Z,5.70
2022-08-22T07:48:08.874Z,6.20
2022-08-22T07:51:17.577Z,6.07
2022-08-22T07:54:45.451Z,6.95
2022-08-22T07:57:57.986Z,6.72
2022-08-22T08:01:01.941Z,6.05
2022-08-22T08:04:15.464Z,6.40
2022-08-22T08:07:22.373Z,5.62
2022-08-22T08:10:35.347Z,6.80
2022-08-22T08:13:42.155Z,5.32
2022-08-22T08:17:17.508Z,5.28
2022-08-22T08:20:22.934Z,8.10
2022-08-22T08:23:30.046Z,6.68
2022-08-22T08:27:07.409Z,6.37
2022-08-22T08:30:44.943Z,5.87
2022-08-22T08:33:50.280Z,6.87
2022-08-22T08:37:01.231Z,6.35
2022-08-22T08:40:16.662Z,6.82
2022-08-22T08:43:42.334Z,7.62
2022-08-22T08:46:58.333Z,7.03
2022-08-22T08:50:10.276Z,8.27
2022-08-22T08:53:29.288Z,5.97
2022-08-22T08:56:38.230Z,6.70
2022-08-22T09:00:05.194Z,5.72
2022-08-22T09:03:35.419Z,8.15
2022-08-22T09:06:52.912Z,6.07
2022-08-22T09:10:19.581Z,5.53
2022-08-22T09:13:52.310Z,5.82
2022-08-22T09:17:17.275Z,6.50
2022-08-22T09:20:39.758Z,4.65
2022-08-22T09:23:54.530Z,5.95
2022-08-22T09:27:31.398Z,5.68
2022-08-22T09:34:34.669Z,5.53
2022-08-22T09:37:57.570Z,5.35
2022-08-22T09:40:16.007Z,5.35
2022-08-22T09:41:18.634Z,6.10
2022-08-22T09:44:45.073Z,6.37
2022-08-22T09:48:09.668Z,5.50
2022-08-22T09:51:32.349Z,6.07
2022-08-22T09:54:44.615Z,5.50
2022-08-22T09:57:59.895Z,5.78
2022-08-22T10:01:15.264Z,5.57
2022-08-22T10:04:23.911Z,6.10
2022-08-22T10:07:35.278Z,5.18
2022-08-22T10:10:46.307Z,5.32
2022-08-22T10:14:11.228Z,5.60
2022-08-22T10:17:31.364Z,4.55
2022-08-22T10:20:49.792Z,5.30
2022-08-22T10:24:36.580Z,5.68
2022-08-22T10:31:30.167Z,4.93
2022-08-22T10:34:44.553Z,4.70
2022-08-22T10:37:59.442Z,5.60
2022-08-22T10:41:09.235Z,4.93
2022-08-22T10:44:21.636Z,5.55
2022-08-22T10:47:38.607Z,4.85
2022-08-22T10:50:47.713Z,6.15
2022-08-22T10:54:32.629Z,6.97
2022-08-22T10:58:14.059Z,6.05
2022-08-22T11:01:37.617Z,7.10
2022-08-22T11:04:50.289Z,6.07
2022-08-22T11:08:11.527Z,5.22
2022-08-22T11:11:22.677Z,5.20
2022-08-22T11:14:42.408Z,4.90
2022-08-22T11:18:20.426Z,4.90
2022-08-22T11:21:36.379Z,5.43
2022-08-22T11:25:06.329Z,4.95
2022-08-22T11:28:17.641Z,4.97
2022-08-22T11:31:36.461Z,4.53
2022-08-22T11:35:31.600Z,5.57
2022-08-22T11:38:53.671Z,4.90
2022-08-22T11:42:21.980Z,5.47
2022-08-22T11:45:31.208Z,6.50
2022-08-22T11:48:58.695Z,6.10
2022-08-22T11:52:37.086Z,5.78
2022-08-22T11:55:58.646Z,6.87
2022-08-22T11:59:29.690Z,5.70
2022-08-22T12:03:05.842Z,5.50
2022-08-22T12:06:41.724Z,4.55
2022-08-22T12:10:13.735Z,5.07
2022-08-22T12:13:34.912Z,5.32
2022-08-22T12:16:59.241Z,5.70
2022-08-22T12:20:17.034Z,5.85
2022-08-22T12:23:22.967Z,7.10
2022-08-22T12:27:28.434Z,5.25
2022-08-22T12:30:35.120Z,5.47
2022-08-22T12:33:50.451Z,5.68
2022-08-22T12:37:10.280Z,5.25
2022-08-22T12:40:43.804Z,6.20
2022-08-22T12:44:05.045Z,5.50
2022-08-22T12:47:31.907Z,6.78
2022-08-22T12:50:51.743Z,6.20
2022-08-22T12:54:18.848Z,7.82
2022-08-22T12:57:34.822Z,7.75
2022-08-22T13:00:47.278Z,7.05
2022-08-22T13:04:19.335Z,6.90
2022-08-22T13:07:40.687Z,8.05
2022-08-22T13:10:58.207Z,7.45
2022-08-22T13:14:02.407Z,7.40
2022-08-22T13:17:24.648Z,7.57
2022-08-22T13:23:45.155Z,5.22
2022-08-22T13:27:00.242Z,5.72
2022-08-22T13:30:18.718Z,5.40
2022-08-22T13:33:35.508Z,6.00
2022-08-22T13:36:51.613Z,6.60
2022-08-22T13:40:01.848Z,4.90
2022-08-22T13:43:12.399Z,4.82
2022-08-22T13:46:23.315Z,6.25
2022-08-22T13:49:49.019Z,5.95
2022-08-22T13:53:08.037Z,5.50
2022-08-22T13:56:20.055Z,5.70
2022-08-22T13:59:51.507Z,6.93
2022-08-22T14:02:59.849Z,5.72
2022-08-22T14:06:35.220Z,6.60
2022-08-22T14:09:55.777Z,6.32
2022-08-22T14:12:58.434Z,6.80
2022-08-22T14:16:04.112Z,6.10
2022-08-22T14:19:14.648Z,5.87
2022-08-22T14:22:31.916Z,5.32
2022-08-22T14:25:40.251Z,4.55
2022-08-22T14:28:43.514Z,5.03
2022-08-22T14:32:01.899Z,5.53
2022-08-22T14:35:37.818Z,4.05
2022-08-22T14:38:48.246Z,6.05
2022-08-22T14:41:58.620Z,4.60
2022-08-22T14:45:24.942Z,4.37
2022-08-22T14:48:40.678Z,3.08
2022-08-22T14:51:58.012Z,1.95
2022-08-22T14:55:11.911Z,2.08
2022-08-22T14:58:18.776Z,1.60
2022-08-22T15:01:33.601Z,1.23
2022-08-22T15:04:40.655Z,1.30
2022-08-22T15:07:54.689Z,1.40
2022-08-22T15:11:27.302Z,1.45
2022-08-22T15:14:40.296Z,1.40
2022-08-22T15:17:50.840Z,1.58
2022-08-22T15:21:24.981Z,1.77
2022-08-22T15:24:28.464Z,1.75
2022-08-22T15:27:34.327Z,1.27
2022-08-22T15:30:44.368Z,1.52
2022-08-22T15:33:48.530Z,1.70
2022-08-22T15:37:18.289Z,2.00
2022-08-22T15:40:47.779Z,1.77
2022-08-22T15:43:53.856Z,1.80
2022-08-22T15:47:01.099Z,1.60
